sensor_id;sensor_type;location;lat;lon;timestamp;P1;durP1;ratioP1;P2;durP2;ratioP2
37609;SDS011;23457;51.966;8.230;2023-03-13T00:01:57;26.10;;;6.35;;
37609;SDS011;23457;51.966;8.230;2023-03-13T00:04:24;23.85;;;4.35;;
37609;SDS011;23457;51.966;8.230;2023-03-13T00:06:50;38.47;;;5.50;;
37609;SDS011;23457;51.966;8.230;2023-03-13T00:09:17;34.80;;;4.95;;
37609;SDS011;23457;51.966;8.230;2023-03-13T00:11:44;33.13;;;5.15;;
37609;SDS011;23457;51.966;8.230;2023-03-13T00:14:11;26.65;;;4.55;;
37609;SDS011;23457;51.966;8.230;2023-03-13T00:16:38;21.00;;;3.88;;
37609;SDS011;23457;51.966;8.230;2023-03-13T00:19:07;20.60;;;4.05;;
37609;SDS011;23457;51.966;8.230;2023-03-13T00:21:34;28.85;;;4.68;;
37609;SDS011;23457;51.966;8.230;2023-03-13T00:24:06;32.30;;;4.60;;
37609;SDS011;23457;51.966;8.230;2023-03-13T00:26:36;32.42;;;4.70;;
37609;SDS011;23457;51.966;8.230;2023-03-13T00:29:02;29.48;;;4.25;;
37609;SDS011;23457;51.966;8.230;2023-03-13T00:31:30;28.70;;;4.15;;
37609;SDS011;23457;51.966;8.230;2023-03-13T00:33:58;19.92;;;4.15;;
37609;SDS011;23457;51.966;8.230;2023-03-13T00:36:27;30.58;;;4.93;;
37609;SDS011;23457;51.966;8.230;2023-03-13T00:41:24;20.83;;;4.38;;
37609;SDS011;23457;51.966;8.230;2023-03-13T00:43:53;24.40;;;4.07;;
37609;SDS011;23457;51.966;8.230;2023-03-13T00:46:21;29.20;;;4.65;;
37609;SDS011;23457;51.966;8.230;2023-03-13T00:48:50;22.88;;;3.70;;
37609;SDS011;23457;51.966;8.230;2023-03-13T00:51:18;27.50;;;4.53;;
37609;SDS011;23457;51.966;8.230;2023-03-13T00:53:46;27.88;;;4.50;;
37609;SDS011;23457;51.966;8.230;2023-03-13T00:56:14;23.02;;;4.28;;
37609;SDS011;23457;51.966;8.230;2023-03-13T00:58:42;32.25;;;5.70;;
37609;SDS011;23457;51.966;8.230;2023-03-13T01:01:18;22.95;;;4.80;;
37609;SDS011;23457;51.966;8.230;2023-03-13T01:03:56;27.65;;;4.07;;
37609;SDS011;23457;51.966;8.230;2023-03-13T01:06:29;24.90;;;4.03;;
37609;SDS011;23457;51.966;8.230;2023-03-13T01:08:57;20.98;;;3.58;;
37609;SDS011;23457;51.966;8.230;2023-03-13T01:11:26;24.45;;;5.25;;
37609;SDS011;23457;51.966;8.230;2023-03-13T01:13:55;26.83;;;4.75;;
37609;SDS011;23457;51.966;8.230;2023-03-13T01:16:28;23.73;;;3.83;;
37609;SDS011;23457;51.966;8.230;2023-03-13T01:19:01;27.25;;;4.00;;
37609;SDS011;23457;51.966;8.230;2023-03-13T01:21:38;25.77;;;4.15;;
37609;SDS011;23457;51.966;8.230;2023-03-13T01:24:06;25.90;;;4.28;;
37609;SDS011;23457;51.966;8.230;2023-03-13T01:26:33;23.58;;;3.80;;
37609;SDS011;23457;51.966;8.230;2023-03-13T01:29:00;20.40;;;3.65;;
37609;SDS011;23457;51.966;8.230;2023-03-13T01:31:28;24.90;;;4.78;;
37609;SDS011;23457;51.966;8.230;2023-03-13T01:33:58;27.58;;;4.22;;
37609;SDS011;23457;51.966;8.230;2023-03-13T01:36:27;26.65;;;4.32;;
37609;SDS011;23457;51.966;8.230;2023-03-13T01:38:55;24.92;;;4.40;;
37609;SDS011;23457;51.966;8.230;2023-03-13T01:41:24;15.88;;;2.92;;
37609;SDS011;23457;51.966;8.230;2023-03-13T01:43:52;27.40;;;4.10;;
37609;SDS011;23457;51.966;8.230;2023-03-13T01:46:21;28.52;;;4.50;;
37609;SDS011;23457;51.966;8.230;2023-03-13T01:49:20;28.20;;;7.07;;
37609;SDS011;23457;51.966;8.230;2023-03-13T01:52:09;27.27;;;4.50;;
37609;SDS011;23457;51.966;8.230;2023-03-13T01:55:13;25.35;;;4.55;;
37609;SDS011;23457;51.966;8.230;2023-03-13T01:57:46;28.02;;;4.68;;
37609;SDS011;23457;51.966;8.230;2023-03-13T02:00:26;27.15;;;4.78;;
37609;SDS011;23457;51.966;8.230;2023-03-13T02:02:57;23.38;;;4.80;;
37609;SDS011;23457;51.966;8.230;2023-03-13T02:05:28;30.65;;;5.65;;
37609;SDS011;23457;51.966;8.230;2023-03-13T02:08:01;30.48;;;4.40;;
37609;SDS011;23457;51.966;8.230;2023-03-13T02:10:36;29.13;;;4.22;;
37609;SDS011;23457;51.966;8.230;2023-03-13T02:13:07;29.33;;;5.32;;
37609;SDS011;23457;51.966;8.230;2023-03-13T02:15:39;24.20;;;3.95;;
37609;SDS011;23457;51.966;8.230;2023-03-13T02:18:07;30.42;;;4.90;;
37609;SDS011;23457;51.966;8.230;2023-03-13T02:20:34;27.02;;;4.50;;
37609;SDS011;23457;51.966;8.230;2023-03-13T02:23:02;20.00;;;3.22;;
37609;SDS011;23457;51.966;8.230;2023-03-13T02:25:37;30.42;;;4.93;;
37609;SDS011;23457;51.966;8.230;2023-03-13T02:30:44;21.88;;;4.28;;
37609;SDS011;23457;51.966;8.230;2023-03-13T02:33:14;22.45;;;4.72;;
37609;SDS011;23457;51.966;8.230;2023-03-13T02:35:44;25.35;;;3.90;;
37609;SDS011;23457;51.966;8.230;2023-03-13T02:38:15;22.05;;;3.70;;
37609;SDS011;23457;51.966;8.230;2023-03-13T02:40:46;26.10;;;3.65;;
37609;SDS011;23457;51.966;8.230;2023-03-13T02:43:19;28.35;;;4.88;;
37609;SDS011;23457;51.966;8.230;2023-03-13T02:45:59;28.50;;;4.43;;
37609;SDS011;23457;51.966;8.230;2023-03-13T02:48:31;22.13;;;3.50;;
37609;SDS011;23457;51.966;8.230;2023-03-13T02:51:00;29.77;;;4.22;;
37609;SDS011;23457;51.966;8.230;2023-03-13T02:53:30;22.27;;;4.80;;
37609;SDS011;23457;51.966;8.230;2023-03-13T02:56:00;27.35;;;3.92;;
37609;SDS011;23457;51.966;8.230;2023-03-13T02:58:27;25.85;;;4.70;;
37609;SDS011;23457;51.966;8.230;2023-03-13T03:01:03;22.65;;;4.47;;
37609;SDS011;23457;51.966;8.230;2023-03-13T03:03:36;37.70;;;5.53;;
37609;SDS011;23457;51.966;8.230;2023-03-13T03:06:03;32.88;;;4.18;;
37609;SDS011;23457;51.966;8.230;2023-03-13T03:08:31;26.45;;;4.28;;
37609;SDS011;23457;51.966;8.230;2023-03-13T03:11:00;29.33;;;4.47;;
37609;SDS011;23457;51.966;8.230;2023-03-13T03:13:27;31.50;;;4.30;;
37609;SDS011;23457;51.966;8.230;2023-03-13T03:15:54;28.83;;;4.30;;
37609;SDS011;23457;51.966;8.230;2023-03-13T03:18:21;28.33;;;4.43;;
37609;SDS011;23457;51.966;8.230;2023-03-13T03:20:47;28.75;;;4.03;;
37609;SDS011;23457;51.966;8.230;2023-03-13T03:23:14;31.33;;;5.32;;
37609;SDS011;23457;51.966;8.230;2023-03-13T03:25:41;23.73;;;4.10;;
37609;SDS011;23457;51.966;8.230;2023-03-13T03:28:07;22.95;;;4.05;;
37609;SDS011;23457;51.966;8.230;2023-03-13T03:30:35;30.70;;;5.00;;
37609;SDS011;23457;51.966;8.230;2023-03-13T03:33:02;27.52;;;4.22;;
37609;SDS011;23457;51.966;8.230;2023-03-13T03:35:29;28.17;;;4.78;;
37609;SDS011;23457;51.966;8.230;2023-03-13T03:37:57;28.80;;;3.92;;
37609;SDS011;23457;51.966;8.230;2023-03-13T03:40:24;42.00;;;8.13;;
37609;SDS011;23457;51.966;8.230;2023-03-13T03:42:50;23.75;;;3.92;;
37609;SDS011;23457;51.966;8.230;2023-03-13T03:45:17;32.25;;;3.90;;
37609;SDS011;23457;51.966;8.230;2023-03-13T03:47:44;27.05;;;3.85;;
37609;SDS011;23457;51.966;8.230;2023-03-13T03:50:11;20.98;;;3.60;;
37609;SDS011;23457;51.966;8.230;2023-03-13T03:52:47;27.10;;;4.18;;
37609;SDS011;23457;51.966;8.230;2023-03-13T03:55:14;30.60;;;3.85;;
37609;SDS011;23457;51.966;8.230;2023-03-13T03:57:41;28.13;;;4.30;;
37609;SDS011;23457;51.966;8.230;2023-03-13T04:00:13;21.77;;;4.32;;
37609;SDS011;23457;51.966;8.230;2023-03-13T04:02:48;21.40;;;4.60;;
37609;SDS011;23457;51.966;8.230;2023-03-13T04:05:15;22.17;;;4.18;;
37609;SDS011;23457;51.966;8.230;2023-03-13T04:07:41;27.38;;;4.65;;
37609;SDS011;23457;51.966;8.230;2023-03-13T04:10:08;19.30;;;3.35;;
37609;SDS011;23457;51.966;8.230;2023-03-13T04:12:41;17.77;;;3.13;;
37609;SDS011;23457;51.966;8.230;2023-03-13T04:15:08;19.00;;;3.47;;
37609;SDS011;23457;51.966;8.230;2023-03-13T04:17:36;22.38;;;4.00;;
37609;SDS011;23457;51.966;8.230;2023-03-13T04:20:04;14.98;;;3.75;;
37609;SDS011;23457;51.966;8.230;2023-03-13T04:22:31;19.38;;;3.60;;
37609;SDS011;23457;51.966;8.230;2023-03-13T04:24:58;19.25;;;3.10;;
37609;SDS011;23457;51.966;8.230;2023-03-13T04:27:28;14.93;;;2.45;;
37609;SDS011;23457;51.966;8.230;2023-03-13T04:29:54;9.77;;;2.47;;
37609;SDS011;23457;51.966;8.230;2023-03-13T04:33:00;14.23;;;2.25;;
37609;SDS011;23457;51.966;8.230;2023-03-13T04:35:38;10.83;;;2.07;;
37609;SDS011;23457;51.966;8.230;2023-03-13T04:38:43;11.48;;;2.00;;
37609;SDS011;23457;51.966;8.230;2023-03-13T04:41:35;7.85;;;1.73;;
37609;SDS011;23457;51.966;8.230;2023-03-13T04:44:31;7.45;;;2.15;;
37609;SDS011;23457;51.966;8.230;2023-03-13T04:47:17;6.55;;;1.88;;
37609;SDS011;23457;51.966;8.230;2023-03-13T04:50:02;7.38;;;1.83;;
37609;SDS011;23457;51.966;8.230;2023-03-13T04:53:01;5.55;;;1.55;;
37609;SDS011;23457;51.966;8.230;2023-03-13T04:58:27;8.13;;;2.17;;
37609;SDS011;23457;51.966;8.230;2023-03-13T05:01:17;11.52;;;2.30;;
37609;SDS011;23457;51.966;8.230;2023-03-13T05:03:59;9.85;;;2.38;;
37609;SDS011;23457;51.966;8.230;2023-03-13T05:06:51;8.52;;;2.00;;
37609;SDS011;23457;51.966;8.230;2023-03-13T05:09:36;7.90;;;2.05;;
37609;SDS011;23457;51.966;8.230;2023-03-13T05:12:29;5.75;;;2.25;;
37609;SDS011;23457;51.966;8.230;2023-03-13T05:15:05;12.65;;;2.42;;
37609;SDS011;23457;51.966;8.230;2023-03-13T05:17:44;9.18;;;3.13;;
37609;SDS011;23457;51.966;8.230;2023-03-13T05:20:21;9.18;;;2.20;;
37609;SDS011;23457;51.966;8.230;2023-03-13T05:22:58;6.57;;;2.13;;
37609;SDS011;23457;51.966;8.230;2023-03-13T05:25:46;6.40;;;2.40;;
37609;SDS011;23457;51.966;8.230;2023-03-13T05:28:21;8.15;;;2.15;;
37609;SDS011;23457;51.966;8.230;2023-03-13T05:31:04;6.93;;;2.33;;
37609;SDS011;23457;51.966;8.230;2023-03-13T05:33:31;5.75;;;2.10;;
37609;SDS011;23457;51.966;8.230;2023-03-13T05:36:08;6.68;;;2.22;;
37609;SDS011;23457;51.966;8.230;2023-03-13T05:38:55;7.88;;;2.38;;
37609;SDS011;23457;51.966;8.230;2023-03-13T05:41:41;5.10;;;2.00;;
37609;SDS011;23457;51.966;8.230;2023-03-13T05:44:26;7.50;;;2.10;;
37609;SDS011;23457;51.966;8.230;2023-03-13T05:47:12;5.32;;;2.10;;
37609;SDS011;23457;51.966;8.230;2023-03-13T05:49:45;6.35;;;2.22;;
37609;SDS011;23457;51.966;8.230;2023-03-13T05:52:27;3.58;;;2.10;;
37609;SDS011;23457;51.966;8.230;2023-03-13T05:55:17;5.65;;;2.33;;
37609;SDS011;23457;51.966;8.230;2023-03-13T05:58:05;7.45;;;2.10;;
37609;SDS011;23457;51.966;8.230;2023-03-13T06:00:45;6.60;;;2.40;;
37609;SDS011;23457;51.966;8.230;2023-03-13T06:03:30;7.10;;;2.30;;
37609;SDS011;23457;51.966;8.230;2023-03-13T06:05:58;5.13;;;2.47;;
37609;SDS011;23457;51.966;8.230;2023-03-13T06:08:36;5.28;;;2.85;;
37609;SDS011;23457;51.966;8.230;2023-03-13T06:11:03;8.43;;;3.20;;
37609;SDS011;23457;51.966;8.230;2023-03-13T06:13:31;7.93;;;3.50;;
37609;SDS011;23457;51.966;8.230;2023-03-13T06:16:03;7.82;;;3.78;;
37609;SDS011;23457;51.966;8.230;2023-03-13T06:18:44;6.53;;;3.60;;
37609;SDS011;23457;51.966;8.230;2023-03-13T06:21:11;8.35;;;4.28;;
37609;SDS011;23457;51.966;8.230;2023-03-13T06:23:37;7.07;;;4.70;;
37609;SDS011;23457;51.966;8.230;2023-03-13T06:26:04;8.52;;;4.70;;
37609;SDS011;23457;51.966;8.230;2023-03-13T06:28:31;6.10;;;4.70;;
37609;SDS011;23457;51.966;8.230;2023-03-13T06:31:04;9.05;;;4.90;;
37609;SDS011;23457;51.966;8.230;2023-03-13T06:33:32;11.57;;;5.78;;
37609;SDS011;23457;51.966;8.230;2023-03-13T06:35:59;8.55;;;5.68;;
37609;SDS011;23457;51.966;8.230;2023-03-13T06:38:27;8.00;;;5.38;;
37609;SDS011;23457;51.966;8.230;2023-03-13T06:40:54;9.25;;;6.20;;
37609;SDS011;23457;51.966;8.230;2023-03-13T06:43:21;7.85;;;5.88;;
37609;SDS011;23457;51.966;8.230;2023-03-13T06:45:47;11.55;;;6.47;;
37609;SDS011;23457;51.966;8.230;2023-03-13T06:48:14;13.02;;;6.63;;
37609;SDS011;23457;51.966;8.230;2023-03-13T06:50:41;8.52;;;6.57;;
37609;SDS011;23457;51.966;8.230;2023-03-13T06:53:13;8.48;;;6.32;;
37609;SDS011;23457;51.966;8.230;2023-03-13T06:55:42;8.32;;;6.32;;
37609;SDS011;23457;51.966;8.230;2023-03-13T06:58:09;9.57;;;6.40;;
37609;SDS011;23457;51.966;8.230;2023-03-13T07:00:54;9.05;;;6.25;;
37609;SDS011;23457;51.966;8.230;2023-03-13T07:03:21;9.20;;;6.03;;
37609;SDS011;23457;51.966;8.230;2023-03-13T07:05:47;7.63;;;5.75;;
37609;SDS011;23457;51.966;8.230;2023-03-13T07:08:14;9.32;;;5.47;;
37609;SDS011;23457;51.966;8.230;2023-03-13T07:10:41;7.88;;;5.18;;
37609;SDS011;23457;51.966;8.230;2023-03-13T07:13:08;7.18;;;5.70;;
37609;SDS011;23457;51.966;8.230;2023-03-13T07:15:35;11.77;;;5.80;;
37609;SDS011;23457;51.966;8.230;2023-03-13T07:18:01;9.90;;;5.25;;
37609;SDS011;23457;51.966;8.230;2023-03-13T07:20:28;6.57;;;5.18;;
37609;SDS011;23457;51.966;8.230;2023-03-13T07:22:55;8.07;;;5.25;;
37609;SDS011;23457;51.966;8.230;2023-03-13T07:25:21;6.60;;;5.22;;
37609;SDS011;23457;51.966;8.230;2023-03-13T07:27:49;7.05;;;5.18;;
37609;SDS011;23457;51.966;8.230;2023-03-13T07:30:18;6.47;;;4.65;;
37609;SDS011;23457;51.966;8.230;2023-03-13T07:32:45;5.63;;;4.47;;
37609;SDS011;23457;51.966;8.230;2023-03-13T07:35:11;10.50;;;4.95;;
37609;SDS011;23457;51.966;8.230;2023-03-13T07:37:38;4.40;;;4.00;;
37609;SDS011;23457;51.966;8.230;2023-03-13T07:40:05;6.95;;;4.50;;
37609;SDS011;23457;51.966;8.230;2023-03-13T07:42:32;4.43;;;3.67;;
37609;SDS011;23457;51.966;8.230;2023-03-13T07:44:59;6.57;;;3.88;;
37609;SDS011;23457;51.966;8.230;2023-03-13T07:47:25;7.28;;;3.05;;
37609;SDS011;23457;51.966;8.230;2023-03-13T07:49:52;8.13;;;3.30;;
37609;SDS011;23457;51.966;8.230;2023-03-13T07:52:19;4.97;;;3.80;;
37609;SDS011;23457;51.966;8.230;2023-03-13T07:54:45;4.85;;;3.33;;
37609;SDS011;23457;51.966;8.230;2023-03-13T07:57:12;4.50;;;3.22;;
37609;SDS011;23457;51.966;8.230;2023-03-13T07:59:39;6.10;;;3.00;;
37609;SDS011;23457;51.966;8.230;2023-03-13T08:02:05;5.72;;;2.50;;
37609;SDS011;23457;51.966;8.230;2023-03-13T08:04:37;3.10;;;2.50;;
37609;SDS011;23457;51.966;8.230;2023-03-13T08:07:10;5.50;;;2.38;;
37609;SDS011;23457;51.966;8.230;2023-03-13T08:09:37;7.93;;;2.67;;
37609;SDS011;23457;51.966;8.230;2023-03-13T08:12:04;4.53;;;2.35;;
37609;SDS011;23457;51.966;8.230;2023-03-13T08:14:31;5.18;;;2.53;;
37609;SDS011;23457;51.966;8.230;2023-03-13T08:16:57;6.72;;;2.60;;
37609;SDS011;23457;51.966;8.230;2023-03-13T08:19:24;4.50;;;2.45;;
37609;SDS011;23457;51.966;8.230;2023-03-13T08:21:51;4.72;;;2.45;;
37609;SDS011;23457;51.966;8.230;2023-03-13T08:24:17;6.07;;;1.98;;
37609;SDS011;23457;51.966;8.230;2023-03-13T08:26:44;3.95;;;2.17;;
37609;SDS011;23457;51.966;8.230;2023-03-13T08:29:12;3.83;;;2.10;;
37609;SDS011;23457;51.966;8.230;2023-03-13T08:31:44;11.93;;;2.83;;
37609;SDS011;23457;51.966;8.230;2023-03-13T08:34:13;5.80;;;2.38;;
37609;SDS011;23457;51.966;8.230;2023-03-13T08:36:41;5.22;;;2.35;;
37609;SDS011;23457;51.966;8.230;2023-03-13T08:39:12;5.93;;;2.13;;
37609;SDS011;23457;51.966;8.230;2023-03-13T08:41:43;4.95;;;2.30;;
37609;SDS011;23457;51.966;8.230;2023-03-13T08:44:11;6.07;;;2.45;;
37609;SDS011;23457;51.966;8.230;2023-03-13T08:46:39;4.82;;;2.15;;
37609;SDS011;23457;51.966;8.230;2023-03-13T08:49:07;5.95;;;2.10;;
37609;SDS011;23457;51.966;8.230;2023-03-13T08:51:35;7.00;;;1.98;;
37609;SDS011;23457;51.966;8.230;2023-03-13T08:54:02;5.75;;;2.28;;
37609;SDS011;23457;51.966;8.230;2023-03-13T08:56:30;4.95;;;2.42;;
37609;SDS011;23457;51.966;8.230;2023-03-13T08:58:58;8.40;;;2.42;;
37609;SDS011;23457;51.966;8.230;2023-03-13T09:01:28;10.63;;;2.85;;
37609;SDS011;23457;51.966;8.230;2023-03-13T09:03:56;6.78;;;1.85;;
37609;SDS011;23457;51.966;8.230;2023-03-13T09:06:23;8.48;;;2.45;;
37609;SDS011;23457;51.966;8.230;2023-03-13T09:08:50;4.13;;;2.00;;
37609;SDS011;23457;51.966;8.230;2023-03-13T09:11:17;7.45;;;2.13;;
37609;SDS011;23457;51.966;8.230;2023-03-13T09:13:47;6.10;;;1.92;;
37609;SDS011;23457;51.966;8.230;2023-03-13T09:16:19;6.57;;;2.17;;
37609;SDS011;23457;51.966;8.230;2023-03-13T09:18:47;7.75;;;2.13;;
37609;SDS011;23457;51.966;8.230;2023-03-13T09:21:16;9.98;;;2.33;;
37609;SDS011;23457;51.966;8.230;2023-03-13T09:23:45;7.57;;;2.60;;
37609;SDS011;23457;51.966;8.230;2023-03-13T09:26:13;5.13;;;2.55;;
37609;SDS011;23457;51.966;8.230;2023-03-13T09:28:40;6.63;;;2.20;;
37609;SDS011;23457;51.966;8.230;2023-03-13T09:31:16;9.55;;;2.22;;
37609;SDS011;23457;51.966;8.230;2023-03-13T09:33:48;8.18;;;2.65;;
37609;SDS011;23457;51.966;8.230;2023-03-13T09:36:15;6.00;;;2.15;;
37609;SDS011;23457;51.966;8.230;2023-03-13T09:38:47;7.75;;;2.55;;
37609;SDS011;23457;51.966;8.230;2023-03-13T09:41:19;10.70;;;3.92;;
37609;SDS011;23457;51.966;8.230;2023-03-13T09:44:14;6.43;;;2.38;;
37609;SDS011;23457;51.966;8.230;2023-03-13T09:46:54;7.18;;;3.13;;
37609;SDS011;23457;51.966;8.230;2023-03-13T09:49:37;6.07;;;3.15;;
37609;SDS011;23457;51.966;8.230;2023-03-13T09:52:18;8.80;;;2.63;;
37609;SDS011;23457;51.966;8.230;2023-03-13T09:54:56;7.63;;;2.80;;
37609;SDS011;23457;51.966;8.230;2023-03-13T10:03:06;6.53;;;2.30;;
37609;SDS011;23457;51.966;8.230;2023-03-13T10:08:42;9.90;;;2.83;;
37609;SDS011;23457;51.966;8.230;2023-03-13T10:14:12;13.45;;;3.05;;
37609;SDS011;23457;51.966;8.230;2023-03-13T10:19:22;8.13;;;2.83;;
37609;SDS011;23457;51.966;8.230;2023-03-13T10:21:56;10.10;;;2.60;;
37609;SDS011;23457;51.966;8.230;2023-03-13T10:24:32;4.55;;;2.13;;
37609;SDS011;23457;51.966;8.230;2023-03-13T10:27:10;6.00;;;2.40;;
37609;SDS011;23457;51.966;8.230;2023-03-13T10:29:39;8.43;;;2.50;;
37609;SDS011;23457;51.966;8.230;2023-03-13T10:32:06;8.73;;;2.70;;
37609;SDS011;23457;51.966;8.230;2023-03-13T10:34:48;10.73;;;2.60;;
37609;SDS011;23457;51.966;8.230;2023-03-13T10:37:20;7.38;;;2.67;;
37609;SDS011;23457;51.966;8.230;2023-03-13T10:40:10;7.68;;;2.25;;
37609;SDS011;23457;51.966;8.230;2023-03-13T10:42:51;7.10;;;2.50;;
37609;SDS011;23457;51.966;8.230;2023-03-13T10:45:24;6.18;;;2.30;;
37609;SDS011;23457;51.966;8.230;2023-03-13T10:47:55;6.70;;;2.08;;
37609;SDS011;23457;51.966;8.230;2023-03-13T10:50:26;6.95;;;2.13;;
37609;SDS011;23457;51.966;8.230;2023-03-13T10:52:57;5.68;;;2.08;;
37609;SDS011;23457;51.966;8.230;2023-03-13T10:55:45;6.68;;;1.98;;
37609;SDS011;23457;51.966;8.230;2023-03-13T10:58:19;4.25;;;1.98;;
37609;SDS011;23457;51.966;8.230;2023-03-13T11:00:49;4.20;;;2.30;;
37609;SDS011;23457;51.966;8.230;2023-03-13T11:05:53;6.93;;;2.30;;
37609;SDS011;23457;51.966;8.230;2023-03-13T11:08:23;6.47;;;1.98;;
37609;SDS011;23457;51.966;8.230;2023-03-13T11:13:42;4.70;;;2.00;;
37609;SDS011;23457;51.966;8.230;2023-03-13T11:21:13;10.10;;;1.83;;
37609;SDS011;23457;51.966;8.230;2023-03-13T11:23:57;6.53;;;1.90;;
37609;SDS011;23457;51.966;8.230;2023-03-13T11:32:02;4.50;;;1.65;;
37609;SDS011;23457;51.966;8.230;2023-03-13T11:37:13;5.47;;;1.70;;
37609;SDS011;23457;51.966;8.230;2023-03-13T11:48:35;5.13;;;1.85;;
37609;SDS011;23457;51.966;8.230;2023-03-13T11:54:55;5.53;;;1.58;;
37609;SDS011;23457;51.966;8.230;2023-03-13T12:00:46;4.97;;;1.70;;
37609;SDS011;23457;51.966;8.230;2023-03-13T12:03:21;5.65;;;1.70;;
37609;SDS011;23457;51.966;8.230;2023-03-13T12:05:58;3.38;;;1.77;;
37609;SDS011;23457;51.966;8.230;2023-03-13T12:08:37;4.63;;;1.40;;
37609;SDS011;23457;51.966;8.230;2023-03-13T12:17:00;3.85;;;1.30;;
37609;SDS011;23457;51.966;8.230;2023-03-13T12:22:30;3.92;;;1.20;;
37609;SDS011;23457;51.966;8.230;2023-03-13T12:25:05;2.25;;;1.00;;
37609;SDS011;23457;51.966;8.230;2023-03-13T12:27:55;3.05;;;0.90;;
37609;SDS011;23457;51.966;8.230;2023-03-13T12:30:32;2.58;;;0.95;;
37609;SDS011;23457;51.966;8.230;2023-03-13T12:36:40;3.58;;;1.15;;
37609;SDS011;23457;51.966;8.230;2023-03-13T12:39:25;2.10;;;1.10;;
37609;SDS011;23457;51.966;8.230;2023-03-13T12:44:34;3.55;;;2.05;;
37609;SDS011;23457;51.966;8.230;2023-03-13T13:03:57;1.05;;;0.57;;
37609;SDS011;23457;51.966;8.230;2023-03-13T13:06:29;3.85;;;1.00;;
37609;SDS011;23457;51.966;8.230;2023-03-13T13:12:02;2.22;;;1.00;;
37609;SDS011;23457;51.966;8.230;2023-03-13T13:22:51;1.90;;;0.60;;
37609;SDS011;23457;51.966;8.230;2023-03-13T13:25:29;1.67;;;0.70;;
37609;SDS011;23457;51.966;8.230;2023-03-13T13:30:48;3.03;;;0.90;;
37609;SDS011;23457;51.966;8.230;2023-03-13T13:38:35;1.48;;;0.70;;
37609;SDS011;23457;51.966;8.230;2023-03-13T13:43:36;2.45;;;0.82;;
37609;SDS011;23457;51.966;8.230;2023-03-13T13:48:32;1.65;;;0.77;;
37609;SDS011;23457;51.966;8.230;2023-03-13T13:59:21;5.63;;;0.70;;
37609;SDS011;23457;51.966;8.230;2023-03-13T14:02:15;6.75;;;0.70;;
37609;SDS011;23457;51.966;8.230;2023-03-13T14:05:02;1.77;;;0.60;;
37609;SDS011;23457;51.966;8.230;2023-03-13T14:07:42;4.95;;;0.88;;
37609;SDS011;23457;51.966;8.230;2023-03-13T14:12:56;2.85;;;0.70;;
37609;SDS011;23457;51.966;8.230;2023-03-13T14:17:57;3.83;;;0.70;;
37609;SDS011;23457;51.966;8.230;2023-03-13T14:20:37;4.25;;;0.68;;
37609;SDS011;23457;51.966;8.230;2023-03-13T14:23:05;1.40;;;0.70;;
37609;SDS011;23457;51.966;8.230;2023-03-13T14:28:24;6.13;;;0.80;;
37609;SDS011;23457;51.966;8.230;2023-03-13T14:30:54;3.67;;;0.73;;
37609;SDS011;23457;51.966;8.230;2023-03-13T14:35:52;3.85;;;0.70;;
37609;SDS011;23457;51.966;8.230;2023-03-13T14:38:23;2.78;;;0.77;;
37609;SDS011;23457;51.966;8.230;2023-03-13T14:40:52;2.30;;;0.60;;
37609;SDS011;23457;51.966;8.230;2023-03-13T14:45:47;0.60;;;0.50;;
37609;SDS011;23457;51.966;8.230;2023-03-13T14:48:31;2.97;;;0.90;;
37609;SDS011;23457;51.966;8.230;2023-03-13T14:51:03;4.22;;;0.82;;
37609;SDS011;23457;51.966;8.230;2023-03-13T14:54:00;4.13;;;1.08;;
37609;SDS011;23457;51.966;8.230;2023-03-13T14:56:32;2.10;;;0.98;;
37609;SDS011;23457;51.966;8.230;2023-03-13T14:59:14;1.02;;;0.70;;
37609;SDS011;23457;51.966;8.230;2023-03-13T15:01:57;1.75;;;0.70;;
37609;SDS011;23457;51.966;8.230;2023-03-13T15:07:16;2.22;;;0.88;;
37609;SDS011;23457;51.966;8.230;2023-03-13T15:09:43;8.07;;;1.13;;
37609;SDS011;23457;51.966;8.230;2023-03-13T15:12:15;3.43;;;0.87;;
37609;SDS011;23457;51.966;8.230;2023-03-13T15:14:46;3.95;;;0.70;;
37609;SDS011;23457;51.966;8.230;2023-03-13T15:17:23;4.28;;;0.80;;
37609;SDS011;23457;51.966;8.230;2023-03-13T15:19:55;1.05;;;0.60;;
37609;SDS011;23457;51.966;8.230;2023-03-13T15:22:24;3.05;;;1.05;;
37609;SDS011;23457;51.966;8.230;2023-03-13T15:24:54;2.63;;;0.80;;
37609;SDS011;23457;51.966;8.230;2023-03-13T15:27:32;2.80;;;0.95;;
37609;SDS011;23457;51.966;8.230;2023-03-13T15:29:59;1.42;;;0.60;;
37609;SDS011;23457;51.966;8.230;2023-03-13T15:32:26;1.83;;;1.00;;
37609;SDS011;23457;51.966;8.230;2023-03-13T15:34:55;1.17;;;0.65;;
37609;SDS011;23457;51.966;8.230;2023-03-13T15:37:28;2.45;;;0.88;;
37609;SDS011;23457;51.966;8.230;2023-03-13T15:39:56;3.03;;;0.70;;
37609;SDS011;23457;51.966;8.230;2023-03-13T15:42:23;1.88;;;0.90;;
37609;SDS011;23457;51.966;8.230;2023-03-13T15:44:50;3.42;;;0.90;;
37609;SDS011;23457;51.966;8.230;2023-03-13T15:47:18;2.40;;;0.80;;
37609;SDS011;23457;51.966;8.230;2023-03-13T15:52:17;2.35;;;0.75;;
37609;SDS011;23457;51.966;8.230;2023-03-13T15:54:48;1.90;;;1.00;;
37609;SDS011;23457;51.966;8.230;2023-03-13T15:57:17;4.78;;;0.93;;
37609;SDS011;23457;51.966;8.230;2023-03-13T15:59:49;2.72;;;0.80;;
37609;SDS011;23457;51.966;8.230;2023-03-13T16:02:17;3.85;;;1.10;;
37609;SDS011;23457;51.966;8.230;2023-03-13T16:04:45;3.00;;;1.10;;
37609;SDS011;23457;51.966;8.230;2023-03-13T16:07:13;2.35;;;0.90;;
37609;SDS011;23457;51.966;8.230;2023-03-13T16:09:42;3.95;;;0.90;;
37609;SDS011;23457;51.966;8.230;2023-03-13T16:12:10;1.50;;;0.77;;
37609;SDS011;23457;51.966;8.230;2023-03-13T16:14:37;5.47;;;1.23;;
37609;SDS011;23457;51.966;8.230;2023-03-13T16:17:12;8.73;;;1.52;;
37609;SDS011;23457;51.966;8.230;2023-03-13T16:19:43;3.75;;;1.00;;
37609;SDS011;23457;51.966;8.230;2023-03-13T16:22:11;3.88;;;0.90;;
37609;SDS011;23457;51.966;8.230;2023-03-13T16:24:38;3.50;;;1.08;;
37609;SDS011;23457;51.966;8.230;2023-03-13T16:27:12;1.85;;;0.90;;
37609;SDS011;23457;51.966;8.230;2023-03-13T16:29:42;1.50;;;0.93;;
37609;SDS011;23457;51.966;8.230;2023-03-13T16:32:11;5.53;;;1.02;;
37609;SDS011;23457;51.966;8.230;2023-03-13T16:34:40;2.03;;;1.30;;
37609;SDS011;23457;51.966;8.230;2023-03-13T16:37:13;2.13;;;0.85;;
37609;SDS011;23457;51.966;8.230;2023-03-13T16:39:42;1.67;;;1.00;;
37609;SDS011;23457;51.966;8.230;2023-03-13T16:42:10;4.28;;;1.10;;
37609;SDS011;23457;51.966;8.230;2023-03-13T16:44:38;6.07;;;0.90;;
37609;SDS011;23457;51.966;8.230;2023-03-13T16:49:55;9.85;;;1.17;;
37609;SDS011;23457;51.966;8.230;2023-03-13T16:52:21;4.07;;;0.90;;
37609;SDS011;23457;51.966;8.230;2023-03-13T16:54:48;6.40;;;1.20;;
37609;SDS011;23457;51.966;8.230;2023-03-13T16:57:16;2.72;;;0.93;;
37609;SDS011;23457;51.966;8.230;2023-03-13T16:59:47;1.70;;;0.88;;
37609;SDS011;23457;51.966;8.230;2023-03-13T17:02:16;4.82;;;0.88;;
37609;SDS011;23457;51.966;8.230;2023-03-13T17:04:45;6.57;;;0.90;;
37609;SDS011;23457;51.966;8.230;2023-03-13T17:07:19;2.30;;;1.05;;
37609;SDS011;23457;51.966;8.230;2023-03-13T17:09:49;3.33;;;1.10;;
37609;SDS011;23457;51.966;8.230;2023-03-13T17:12:17;3.20;;;1.10;;
37609;SDS011;23457;51.966;8.230;2023-03-13T17:14:44;5.05;;;1.02;;
37609;SDS011;23457;51.966;8.230;2023-03-13T17:17:15;2.28;;;1.02;;
37609;SDS011;23457;51.966;8.230;2023-03-13T17:19:44;5.53;;;1.25;;
37609;SDS011;23457;51.966;8.230;2023-03-13T17:22:12;4.00;;;1.20;;
37609;SDS011;23457;51.966;8.230;2023-03-13T17:24:40;7.10;;;1.10;;
37609;SDS011;23457;51.966;8.230;2023-03-13T17:27:11;2.35;;;1.23;;
37609;SDS011;23457;51.966;8.230;2023-03-13T17:29:39;2.85;;;1.25;;
37609;SDS011;23457;51.966;8.230;2023-03-13T17:32:10;8.65;;;1.20;;
37609;SDS011;23457;51.966;8.230;2023-03-13T17:34:38;3.55;;;1.00;;